sensor_id;sensor_type;location;lat;lon;timestamp;pressure;altitude;pressure_sealevel;temperature;humidity
7614;BME280;3848;42.016;23.098;2023-02-28T00:00:08;97537.16;;;10.24;100.00
7614;BME280;3848;42.016;23.098;2023-02-28T00:02:36;97528.69;;;10.25;100.00
7614;BME280;3848;42.016;23.098;2023-02-28T00:05:04;97532.94;;;10.26;100.00
7614;BME280;3848;42.016;23.098;2023-02-28T00:07:31;97532.06;;;10.29;100.00
7614;BME280;3848;42.016;23.098;2023-02-28T00:09:58;97538.84;;;10.28;100.00
7614;BME280;3848;42.016;23.098;2023-02-28T00:12:26;97521.94;;;10.24;100.00
7614;BME280;3848;42.016;23.098;2023-02-28T00:14:53;97522.75;;;10.29;100.00
7614;BME280;3848;42.016;23.098;2023-02-28T00:17:20;97523.59;;;10.31;100.00
7614;BME280;3848;42.016;23.098;2023-02-28T00:19:47;97519.38;;;10.33;100.00
7614;BME280;3848;42.016;23.098;2023-02-28T00:22:15;97523.59;;;10.30;100.00
7614;BME280;3848;42.016;23.098;2023-02-28T00:24:42;97519.38;;;10.27;100.00
7614;BME280;3848;42.016;23.098;2023-02-28T00:27:09;97524.47;;;10.27;100.00
7614;BME280;3848;42.016;23.098;2023-02-28T00:29:37;97533.78;;;10.27;100.00
7614;BME280;3848;42.016;23.098;2023-02-28T00:32:05;97527.84;;;10.22;100.00
7614;BME280;3848;42.016;23.098;2023-02-28T00:34:32;97540.56;;;10.23;100.00
7614;BME280;3848;42.016;23.098;2023-02-28T00:37:03;97536.31;;;10.22;100.00
7614;BME280;3848;42.016;23.098;2023-02-28T00:39:30;97527.78;;;10.20;100.00
7614;BME280;3848;42.016;23.098;2023-02-28T00:41:57;97530.41;;;10.22;100.00
7614;BME280;3848;42.016;23.098;2023-02-28T00:44:24;97529.53;;;10.21;100.00
7614;BME280;3848;42.016;23.098;2023-02-28T00:46:52;97535.47;;;10.23;100.00
7614;BME280;3848;42.016;23.098;2023-02-28T00:49:19;97535.41;;;10.20;100.00
7614;BME280;3848;42.016;23.098;2023-02-28T00:51:46;97532.03;;;10.15;100.00
7614;BME280;3848;42.016;23.098;2023-02-28T00:54:13;97539.66;;;10.15;100.00
7614;BME280;3848;42.016;23.098;2023-02-28T00:56:40;97529.50;;;10.09;100.00
7614;BME280;3848;42.016;23.098;2023-02-28T00:59:06;97537.13;;;10.14;100.00
7614;BME280;3848;42.016;23.098;2023-02-28T01:01:33;97534.56;;;10.12;100.00
7614;BME280;3848;42.016;23.098;2023-02-28T01:04:02;97523.59;;;10.02;100.00
7614;BME280;3848;42.016;23.098;2023-02-28T01:06:28;97525.25;;;9.99;100.00
7614;BME280;3848;42.016;23.098;2023-02-28T01:08:55;97523.56;;;9.96;100.00
7614;BME280;3848;42.016;23.098;2023-02-28T01:11:22;97510.03;;;9.88;100.00
7614;BME280;3848;42.016;23.098;2023-02-28T01:13:49;97529.47;;;9.97;100.00
7614;BME280;3848;42.016;23.098;2023-02-28T01:16:15;97514.25;;;9.83;100.00
7614;BME280;3848;42.016;23.098;2023-02-28T01:18:42;97508.31;;;9.72;100.00
7614;BME280;3848;42.016;23.098;2023-02-28T01:21:12;97522.69;;;9.77;100.00
7614;BME280;3848;42.016;23.098;2023-02-28T01:23:40;97519.31;;;9.75;100.00
7614;BME280;3848;42.016;23.098;2023-02-28T01:26:08;97516.78;;;9.71;100.00
7614;BME280;3848;42.016;23.098;2023-02-28T01:28:36;97512.53;;;9.67;100.00
7614;BME280;3848;42.016;23.098;2023-02-28T01:31:04;97518.47;;;9.67;100.00
7614;BME280;3848;42.016;23.098;2023-02-28T01:33:31;97464.28;;;9.35;100.00
7614;BME280;3848;42.016;23.098;2023-02-28T01:35:59;97513.34;;;9.57;100.00
7614;BME280;3848;42.016;23.098;2023-02-28T01:38:27;97497.28;;;9.44;100.00
7614;BME280;3848;42.016;23.098;2023-02-28T01:40:54;97509.97;;;9.47;100.00
7614;BME280;3848;42.016;23.098;2023-02-28T01:43:24;97512.50;;;9.44;100.00
7614;BME280;3848;42.016;23.098;2023-02-28T01:45:51;97526.03;;;9.43;100.00
7614;BME280;3848;42.016;23.098;2023-02-28T01:48:19;97519.22;;;9.34;100.00
7614;BME280;3848;42.016;23.098;2023-02-28T01:50:47;97509.06;;;9.24;100.00
7614;BME280;3848;42.016;23.098;2023-02-28T01:53:18;97527.66;;;9.32;100.00
7614;BME280;3848;42.016;23.098;2023-02-28T01:55:49;97524.25;;;9.21;100.00
7614;BME280;3848;42.016;23.098;2023-02-28T01:58:17;97520.84;;;9.14;100.00
7614;BME280;3848;42.016;23.098;2023-02-28T02:00:44;97535.25;;;9.27;100.00
7614;BME280;3848;42.016;23.098;2023-02-28T02:03:13;97533.56;;;9.29;100.00
7614;BME280;3848;42.016;23.098;2023-02-28T02:05:41;97539.47;;;9.24;100.00
7614;BME280;3848;42.016;23.098;2023-02-28T02:08:16;97537.78;;;9.24;100.00
7614;BME280;3848;42.016;23.098;2023-02-28T02:10:45;97527.63;;;9.20;100.00
7614;BME280;3848;42.016;23.098;2023-02-28T02:13:24;97542.88;;;9.24;100.00
7614;BME280;3848;42.016;23.098;2023-02-28T02:15:59;97548.78;;;9.28;100.00
7614;BME280;3848;42.016;23.098;2023-02-28T02:18:33;97527.63;;;9.18;100.00
7614;BME280;3848;42.016;23.098;2023-02-28T02:24:40;97552.16;;;9.24;100.00
7614;BME280;3848;42.016;23.098;2023-02-28T02:27:23;97544.53;;;9.21;100.00
7614;BME280;3848;42.016;23.098;2023-02-28T02:33:06;97557.22;;;9.21;100.00
7614;BME280;3848;42.016;23.098;2023-02-28T02:35:43;97565.66;;;9.20;100.00
7614;BME280;3848;42.016;23.098;2023-02-28T02:38:18;97569.91;;;9.21;100.00
7614;BME280;3848;42.016;23.098;2023-02-28T02:40:53;97569.06;;;9.25;100.00
7614;BME280;3848;42.016;23.098;2023-02-28T02:43:26;97558.06;;;9.23;100.00
7614;BME280;3848;42.016;23.098;2023-02-28T02:45:56;97564.81;;;9.21;100.00
7614;BME280;3848;42.016;23.098;2023-02-28T02:48:27;97561.44;;;9.17;100.00
7614;BME280;3848;42.016;23.098;2023-02-28T02:50:59;97576.66;;;9.22;100.00
7614;BME280;3848;42.016;23.098;2023-02-28T02:53:29;97576.66;;;9.20;100.00
7614;BME280;3848;42.016;23.098;2023-02-28T02:55:57;97574.97;;;9.21;100.00
7614;BME280;3848;42.016;23.098;2023-02-28T02:58:29;97579.19;;;9.19;100.00
7614;BME280;3848;42.016;23.098;2023-02-28T03:01:00;97581.72;;;9.22;100.00
7614;BME280;3848;42.016;23.098;2023-02-28T03:03:29;97580.91;;;9.23;100.00
7614;BME280;3848;42.016;23.098;2023-02-28T03:06:00;97586.81;;;9.25;100.00
7614;BME280;3848;42.016;23.098;2023-02-28T03:08:29;97590.19;;;9.27;100.00
7614;BME280;3848;42.016;23.098;2023-02-28T03:10:58;97591.06;;;9.33;100.00
7614;BME280;3848;42.016;23.098;2023-02-28T03:13:58;97594.47;;;9.37;100.00
7614;BME280;3848;42.016;23.098;2023-02-28T03:16:33;97594.47;;;9.37;100.00
7614;BME280;3848;42.016;23.098;2023-02-28T03:19:23;97596.19;;;9.38;100.00
7614;BME280;3848;42.016;23.098;2023-02-28T03:21:59;97596.13;;;9.30;100.00
7614;BME280;3848;42.016;23.098;2023-02-28T03:24:33;97591.88;;;9.22;100.00
7614;BME280;3848;42.016;23.098;2023-02-28T03:27:06;97596.13;;;9.29;100.00
7614;BME280;3848;42.016;23.098;2023-02-28T03:29:35;97600.34;;;9.28;100.00
7614;BME280;3848;42.016;23.098;2023-02-28T03:32:09;97600.34;;;9.27;100.00
7614;BME280;3848;42.016;23.098;2023-02-28T03:34:42;97567.28;;;9.07;100.00
7614;BME280;3848;42.016;23.098;2023-02-28T03:37:17;97599.47;;;9.19;100.00
7614;BME280;3848;42.016;23.098;2023-02-28T03:39:47;97593.50;;;9.10;100.00
7614;BME280;3848;42.016;23.098;2023-02-28T03:42:18;97608.78;;;9.20;100.00
7614;BME280;3848;42.016;23.098;2023-02-28T03:44:49;97587.59;;;9.11;100.00
7614;BME280;3848;42.016;23.098;2023-02-28T03:47:22;97611.31;;;9.21;100.00
7614;BME280;3848;42.016;23.098;2023-02-28T03:49:54;97602.81;;;9.14;100.00
7614;BME280;3848;42.016;23.098;2023-02-28T03:52:28;97602.75;;;9.02;100.00
7614;BME280;3848;42.016;23.098;2023-02-28T03:55:02;97614.56;;;8.99;100.00
7614;BME280;3848;42.016;23.098;2023-02-28T03:57:36;97620.44;;;8.93;100.00
7614;BME280;3848;42.016;23.098;2023-02-28T04:00:06;97619.56;;;8.88;100.00
7614;BME280;3848;42.016;23.098;2023-02-28T04:02:35;97623.75;;;8.81;100.00
7614;BME280;3848;42.016;23.098;2023-02-28T04:05:03;97582.09;;;8.46;100.00
7614;BME280;3848;42.016;23.098;2023-02-28T04:07:31;97505.00;;;8.09;100.00
7614;BME280;3848;42.016;23.098;2023-02-28T04:09:58;97616.91;;;8.73;100.00
7614;BME280;3848;42.016;23.098;2023-02-28T04:12:25;97630.47;;;8.78;100.00
7614;BME280;3848;42.016;23.098;2023-02-28T04:14:52;97633.03;;;8.78;100.00
7614;BME280;3848;42.016;23.098;2023-02-28T04:17:19;97632.19;;;8.82;100.00
7614;BME280;3848;42.016;23.098;2023-02-28T04:19:46;97630.47;;;8.78;100.00
7614;BME280;3848;42.016;23.098;2023-02-28T04:22:12;97626.25;;;8.78;100.00
7614;BME280;3848;42.016;23.098;2023-02-28T04:24:41;97633.03;;;8.81;100.00
7614;BME280;3848;42.016;23.098;2023-02-28T04:27:08;97627.09;;;8.76;100.00
7614;BME280;3848;42.016;23.098;2023-02-28T04:29:35;97640.66;;;8.84;100.00
7614;BME280;3848;42.016;23.098;2023-02-28T04:32:02;97630.50;;;8.79;100.00
7614;BME280;3848;42.016;23.098;2023-02-28T04:34:31;97635.56;;;8.82;100.00
7614;BME280;3848;42.016;23.098;2023-02-28T04:36:58;97628.78;;;8.75;100.00
7614;BME280;3848;42.016;23.098;2023-02-28T04:39:26;97637.25;;;8.79;100.00
7614;BME280;3848;42.016;23.098;2023-02-28T04:41:54;97644.88;;;8.85;100.00
7614;BME280;3848;42.016;23.098;2023-02-28T04:44:22;97643.19;;;8.85;100.00
7614;BME280;3848;42.016;23.098;2023-02-28T04:46:49;97648.28;;;8.90;100.00
7614;BME280;3848;42.016;23.098;2023-02-28T04:49:16;97638.97;;;8.84;100.00
7614;BME280;3848;42.016;23.098;2023-02-28T04:51:43;97639.78;;;8.82;100.00
7614;BME280;3848;42.016;23.098;2023-02-28T04:54:09;97628.81;;;8.83;100.00
7614;BME280;3848;42.016;23.098;2023-02-28T04:56:36;97586.41;;;8.54;100.00
7614;BME280;3848;42.016;23.098;2023-02-28T04:59:04;97652.50;;;8.86;100.00
7614;BME280;3848;42.016;23.098;2023-02-28T05:01:33;97650.81;;;8.89;100.00
7614;BME280;3848;42.016;23.098;2023-02-28T05:04:02;97591.44;;;8.53;100.00
7614;BME280;3848;42.016;23.098;2023-02-28T05:06:31;97649.97;;;8.86;100.00
7614;BME280;3848;42.016;23.098;2023-02-28T05:08:58;97656.75;;;8.95;100.00
7614;BME280;3848;42.016;23.098;2023-02-28T05:11:28;97660.13;;;8.93;100.00
7614;BME280;3848;42.016;23.098;2023-02-28T05:14:00;97650.81;;;8.87;100.00
7614;BME280;3848;42.016;23.098;2023-02-28T05:16:28;97660.13;;;8.91;100.00
7614;BME280;3848;42.016;23.098;2023-02-28T05:18:56;97667.75;;;8.94;100.00
7614;BME280;3848;42.016;23.098;2023-02-28T05:21:26;97674.50;;;8.95;100.00
7614;BME280;3848;42.016;23.098;2023-02-28T05:23:54;97677.09;;;8.97;100.00
7614;BME280;3848;42.016;23.098;2023-02-28T05:26:22;97682.16;;;8.97;100.00
7614;BME280;3848;42.016;23.098;2023-02-28T05:28:49;97688.06;;;8.96;100.00
7614;BME280;3848;42.016;23.098;2023-02-28T05:31:16;97672.75;;;8.85;100.00
7614;BME280;3848;42.016;23.098;2023-02-28T05:33:45;97708.28;;;8.91;100.00
7614;BME280;3848;42.016;23.098;2023-02-28T05:36:12;97694.72;;;8.88;100.00
7614;BME280;3848;42.016;23.098;2023-02-28T05:38:39;97698.97;;;8.87;100.00
7614;BME280;3848;42.016;23.098;2023-02-28T05:41:07;97694.72;;;8.86;100.00
7614;BME280;3848;42.016;23.098;2023-02-28T05:43:34;97702.31;;;8.86;100.00
7614;BME280;3848;42.016;23.098;2023-02-28T05:46:04;97656.50;;;8.59;100.00
7614;BME280;3848;42.016;23.098;2023-02-28T05:48:31;97706.53;;;8.84;100.00
7614;BME280;3848;42.016;23.098;2023-02-28T05:50:59;97711.56;;;8.78;100.00
7614;BME280;3848;42.016;23.098;2023-02-28T05:53:26;97699.66;;;8.72;100.00
7614;BME280;3848;42.016;23.098;2023-02-28T05:55:53;97710.72;;;8.79;100.00
7614;BME280;3848;42.016;23.098;2023-02-28T05:58:20;97715.81;;;8.82;100.00
7614;BME280;3848;42.016;23.098;2023-02-28T06:00:47;97718.38;;;8.88;100.00
7614;BME280;3848;42.016;23.098;2023-02-28T06:03:14;97721.75;;;8.87;100.00
7614;BME280;3848;42.016;23.098;2023-02-28T06:05:41;97678.56;;;8.72;100.00
7614;BME280;3848;42.016;23.098;2023-02-28T06:08:09;97710.78;;;8.85;100.00
7614;BME280;3848;42.016;23.098;2023-02-28T06:10:36;97696.34;;;8.75;100.00
7614;BME280;3848;42.016;23.098;2023-02-28T06:13:03;97706.56;;;8.90;100.00
7614;BME280;3848;42.016;23.098;2023-02-28T06:15:31;97715.13;;;9.00;100.00
7614;BME280;3848;42.016;23.098;2023-02-28T06:17:58;97710.81;;;8.94;100.00
7614;BME280;3848;42.016;23.098;2023-02-28T06:20:26;97684.59;;;8.86;100.00
7614;BME280;3848;42.016;23.098;2023-02-28T06:22:54;97725.34;;;9.13;100.00
7614;BME280;3848;42.016;23.098;2023-02-28T06:25:23;97724.56;;;9.22;100.00
7614;BME280;3848;42.016;23.098;2023-02-28T06:27:50;97728.81;;;9.26;100.00
7614;BME280;3848;42.016;23.098;2023-02-28T06:30:17;97735.63;;;9.35;100.00
7614;BME280;3848;42.016;23.098;2023-02-28T06:32:44;97653.34;;;8.87;100.00
7614;BME280;3848;42.016;23.098;2023-02-28T06:35:10;97744.13;;;9.40;100.00
7614;BME280;3848;42.016;23.098;2023-02-28T06:37:39;97740.78;;;9.47;100.00
7614;BME280;3848;42.016;23.098;2023-02-28T06:40:06;97734.03;;;9.51;100.00
7614;BME280;3848;42.016;23.098;2023-02-28T06:42:35;97672.16;;;9.21;100.00
7614;BME280;3848;42.016;23.098;2023-02-28T06:45:02;97735.81;;;9.65;100.00
7614;BME280;3848;42.016;23.098;2023-02-28T06:47:34;97726.50;;;9.60;100.00
7614;BME280;3848;42.016;23.098;2023-02-28T06:50:01;97728.13;;;9.53;100.00
7614;BME280;3848;42.016;23.098;2023-02-28T06:52:29;97745.06;;;9.54;100.00
7614;BME280;3848;42.016;23.098;2023-02-28T06:54:57;97734.00;;;9.43;100.00
7614;BME280;3848;42.016;23.098;2023-02-28T06:57:27;97750.13;;;9.53;100.00
7614;BME280;3848;42.016;23.098;2023-02-28T06:59:58;97744.19;;;9.49;100.00
7614;BME280;3848;42.016;23.098;2023-02-28T07:02:25;97738.28;;;9.52;100.00
7614;BME280;3848;42.016;23.098;2023-02-28T07:04:52;97693.28;;;9.22;100.00
7614;BME280;3848;42.016;23.098;2023-02-28T07:07:19;97739.19;;;9.61;100.00
7614;BME280;3848;42.016;23.098;2023-02-28T07:09:46;97734.97;;;9.60;100.00
7614;BME280;3848;42.016;23.098;2023-02-28T07:12:13;97737.44;;;9.57;100.00
7614;BME280;3848;42.016;23.098;2023-02-28T07:14:40;97733.28;;;9.64;100.00
7614;BME280;3848;42.016;23.098;2023-02-28T07:17:08;97709.53;;;9.53;100.00
7614;BME280;3848;42.016;23.098;2023-02-28T07:19:37;97735.84;;;9.68;100.00
7614;BME280;3848;42.016;23.098;2023-02-28T07:22:04;97739.25;;;9.73;100.00
7614;BME280;3848;42.016;23.098;2023-02-28T07:24:31;97741.75;;;9.69;100.00
7614;BME280;3848;42.016;23.098;2023-02-28T07:26:58;97735.81;;;9.67;100.00
7614;BME280;3848;42.016;23.098;2023-02-28T07:29:26;97737.53;;;9.69;100.00
7614;BME280;3848;42.016;23.098;2023-02-28T07:31:53;97735.72;;;9.45;100.00
7614;BME280;3848;42.016;23.098;2023-02-28T07:34:21;97734.00;;;9.43;100.00
7614;BME280;3848;42.016;23.098;2023-02-28T07:36:48;97730.63;;;9.42;100.00
7614;BME280;3848;42.016;23.098;2023-02-28T07:39:18;97734.00;;;9.43;100.00
7614;BME280;3848;42.016;23.098;2023-02-28T07:41:45;97728.13;;;9.48;100.00
7614;BME280;3848;42.016;23.098;2023-02-28T07:44:13;97721.34;;;9.46;100.00
7614;BME280;3848;42.016;23.098;2023-02-28T07:46:40;97733.22;;;9.58;100.00
7614;BME280;3848;42.016;23.098;2023-02-28T07:49:07;97735.81;;;9.59;100.00
7614;BME280;3848;42.016;23.098;2023-02-28T07:51:35;97741.72;;;9.58;100.00
7614;BME280;3848;42.016;23.098;2023-02-28T07:54:03;97678.97;;;9.33;100.00
7614;BME280;3848;42.016;23.098;2023-02-28T07:56:30;97673.91;;;9.31;100.00
7614;BME280;3848;42.016;23.098;2023-02-28T07:58:56;97742.63;;;9.78;100.00
7614;BME280;3848;42.016;23.098;2023-02-28T08:01:23;97742.63;;;9.78;100.00
7614;BME280;3848;42.016;23.098;2023-02-28T08:03:50;97739.28;;;9.80;100.00
7614;BME280;3848;42.016;23.098;2023-02-28T08:06:19;97736.72;;;9.76;100.00
7614;BME280;3848;42.016;23.098;2023-02-28T08:08:48;97734.22;;;9.83;100.00
7614;BME280;3848;42.016;23.098;2023-02-28T08:11:15;97732.53;;;9.83;100.00
7614;BME280;3848;42.016;23.098;2023-02-28T08:13:42;97728.31;;;9.91;100.00
7614;BME280;3848;42.016;23.098;2023-02-28T08:16:11;97719.00;;;9.89;100.00
7614;BME280;3848;42.016;23.098;2023-02-28T08:18:39;97730.94;;;10.03;100.00
7614;BME280;3848;42.016;23.098;2023-02-28T08:21:07;97720.72;;;9.99;100.00
7614;BME280;3848;42.016;23.098;2023-02-28T08:23:33;97730.94;;;10.11;100.00
7614;BME280;3848;42.016;23.098;2023-02-28T08:26:02;97725.88;;;10.11;100.00
7614;BME280;3848;42.016;23.098;2023-02-28T08:28:30;97729.25;;;10.19;100.00
7614;BME280;3848;42.016;23.098;2023-02-28T08:30:58;97727.63;;;10.24;100.00
7614;BME280;3848;42.016;23.098;2023-02-28T08:33:25;97722.56;;;10.24;100.00
7614;BME280;3848;42.016;23.098;2023-02-28T08:35:53;97731.03;;;10.31;100.00
7614;BME280;3848;42.016;23.098;2023-02-28T08:38:21;97731.03;;;10.37;100.00
7614;BME280;3848;42.016;23.098;2023-02-28T08:40:47;97731.03;;;10.25;100.00
7614;BME280;3848;42.016;23.098;2023-02-28T08:43:16;97729.34;;;10.22;100.00
7614;BME280;3848;42.016;23.098;2023-02-28T08:45:43;97715.72;;;10.17;100.00
7614;BME280;3848;42.016;23.098;2023-02-28T08:48:10;97685.19;;;9.99;100.00
7614;BME280;3848;42.016;23.098;2023-02-28T08:50:36;97727.66;;;10.27;100.00
7614;BME280;3848;42.016;23.098;2023-02-28T08:53:03;97725.94;;;10.29;100.00
7614;BME280;3848;42.016;23.098;2023-02-28T08:55:30;97726.81;;;10.31;100.00
7614;BME280;3848;42.016;23.098;2023-02-28T08:57:57;97727.66;;;10.30;100.00
7614;BME280;3848;42.016;23.098;2023-02-28T09:00:28;97724.25;;;10.33;100.00
7614;BME280;3848;42.016;23.098;2023-02-28T09:02:54;97725.97;;;10.35;100.00
7614;BME280;3848;42.016;23.098;2023-02-28T09:05:21;97731.06;;;10.42;100.00
7614;BME280;3848;42.016;23.098;2023-02-28T09:07:49;97727.69;;;10.46;100.00
7614;BME280;3848;42.016;23.098;2023-02-28T09:10:16;97727.69;;;10.46;100.00
7614;BME280;3848;42.016;23.098;2023-02-28T09:12:43;97721.72;;;10.37;100.00
7614;BME280;3848;42.016;23.098;2023-02-28T09:15:12;97725.09;;;10.30;100.00
7614;BME280;3848;42.016;23.098;2023-02-28T09:17:40;97723.41;;;10.29;100.00
7614;BME280;3848;42.016;23.098;2023-02-28T09:20:08;97717.47;;;10.27;100.00
7614;BME280;3848;42.016;23.098;2023-02-28T09:22:35;97703.00;;;10.16;100.00
7614;BME280;3848;42.016;23.098;2023-02-28T09:25:02;97723.41;;;10.29;100.00
7614;BME280;3848;42.016;23.098;2023-02-28T09:27:29;97704.78;;;10.23;100.00
7614;BME280;3848;42.016;23.098;2023-02-28T09:29:55;97717.50;;;10.33;100.00
7614;BME280;3848;42.016;23.098;2023-02-28T09:32:23;97649.66;;;9.99;100.00
7614;BME280;3848;42.016;23.098;2023-02-28T09:34:52;97709.03;;;10.41;100.00
7614;BME280;3848;42.016;23.098;2023-02-28T09:37:18;97704.78;;;10.39;100.00
7614;BME280;3848;42.016;23.098;2023-02-28T09:39:45;97700.56;;;10.38;100.00
7614;BME280;3848;42.016;23.098;2023-02-28T09:42:20;97705.69;;;10.48;100.00
7614;BME280;3848;42.016;23.098;2023-02-28T09:44:49;97698.03;;;10.40;100.00
7614;BME280;3848;42.016;23.098;2023-02-28T09:47:21;97701.41;;;10.34;100.00
7614;BME280;3848;42.016;23.098;2023-02-28T09:49:55;97695.50;;;10.48;100.00
7614;BME280;3848;42.016;23.098;2023-02-28T09:52:28;97694.66;;;10.50;100.00
7614;BME280;3848;42.016;23.098;2023-02-28T09:54:55;97688.75;;;10.62;100.00
7614;BME280;3848;42.016;23.098;2023-02-28T09:57:32;97691.28;;;10.68;100.00
7614;BME280;3848;42.016;23.098;2023-02-28T10:00:07;97685.38;;;10.84;100.00
7614;BME280;3848;42.016;23.098;2023-02-28T10:02:49;97636.22;;;10.61;100.00
7614;BME280;3848;42.016;23.098;2023-02-28T10:05:24;97680.28;;;10.87;100.00
7614;BME280;3848;42.016;23.098;2023-02-28T10:08:03;97677.72;;;10.95;100.00
7614;BME280;3848;42.016;23.098;2023-02-28T10:10:36;97670.09;;;10.95;100.00
7614;BME280;3848;42.016;23.098;2023-02-28T10:13:10;97650.63;;;10.68;100.00
7614;BME280;3848;42.016;23.098;2023-02-28T10:15:40;97662.47;;;10.77;100.00
7614;BME280;3848;42.016;23.098;2023-02-28T10:18:11;97662.50;;;10.87;100.00
7614;BME280;3848;42.016;23.098;2023-02-28T10:20:41;97653.13;;;11.00;100.00
7614;BME280;3848;42.016;23.098;2023-02-28T10:23:14;97653.16;;;11.06;100.00
7614;BME280;3848;42.016;23.098;2023-02-28T10:25:45;97650.56;;;11.20;100.00
7614;BME280;3848;42.016;23.098;2023-02-28T10:28:15;97638.69;;;11.25;100.00
7614;BME280;3848;42.016;23.098;2023-02-28T10:30:46;97642.88;;;11.46;100.00
7614;BME280;3848;42.016;23.098;2023-02-28T10:33:19;97645.38;;;11.56;100.00
7614;BME280;3848;42.016;23.098;2023-02-28T10:35:49;97628.38;;;11.61;100.00
7614;BME280;3848;42.016;23.098;2023-02-28T10:38:18;97637.66;;;11.75;100.00
7614;BME280;3848;42.016;23.098;2023-02-28T10:40:45;97622.34;;;11.84;100.00
7614;BME280;3848;42.016;23.098;2023-02-28T10:43:19;97593.53;;;11.74;100.00
7614;BME280;3848;42.016;23.098;2023-02-28T10:45:59;97622.38;;;11.81;100.00
7614;BME280;3848;42.016;23.098;2023-02-28T10:48:31;97617.28;;;11.78;100.00
7614;BME280;3848;42.016;23.098;2023-02-28T10:51:01;97598.59;;;11.83;100.00
7614;BME280;3848;42.016;23.098;2023-02-28T10:53:35;97611.19;;;12.11;100.00
7614;BME280;3848;42.016;23.098;2023-02-28T10:56:05;97603.38;;;12.35;100.00
7614;BME280;3848;42.016;23.098;2023-02-28T10:58:46;97593.03;;;12.52;100.00
7614;BME280;3848;42.016;23.098;2023-02-28T11:01:15;97589.59;;;12.56;100.00
7614;BME280;3848;42.016;23.098;2023-02-28T11:03:43;97588.72;;;12.60;100.00
7614;BME280;3848;42.016;23.098;2023-02-28T11:06:16;97583.53;;;12.68;100.00
7614;BME280;3848;42.016;23.098;2023-02-28T11:08:46;97590.25;;;12.78;100.00
7614;BME280;3848;42.016;23.098;2023-02-28T11:11:14;97583.56;;;12.66;100.00
7614;BME280;3848;42.016;23.098;2023-02-28T11:13:45;97582.66;;;12.73;100.00
7614;BME280;3848;42.016;23.098;2023-02-28T11:16:13;97585.16;;;12.79;100.00
7614;BME280;3848;42.016;23.098;2023-02-28T11:18:44;97569.75;;;12.87;100.00
7614;BME280;3848;42.016;23.098;2023-02-28T11:21:21;97565.38;;;13.00;100.00
7614;BME280;3848;42.016;23.098;2023-02-28T11:23:51;97575.47;;;13.09;100.00
7614;BME280;3848;42.016;23.098;2023-02-28T11:26:35;97565.25;;;13.09;100.00
7614;BME280;3848;42.016;23.098;2023-02-28T11:29:10;97575.41;;;13.18;100.00
7614;BME280;3848;42.016;23.098;2023-02-28T11:31:37;97559.13;;;13.28;100.00
7614;BME280;3848;42.016;23.098;2023-02-28T11:34:23;97563.25;;;13.40;100.00
7614;BME280;3848;42.016;23.098;2023-02-28T11:36:54;97565.25;;;13.13;100.00
7614;BME280;3848;42.016;23.098;2023-02-28T11:39:22;97563.59;;;13.08;100.00
7614;BME280;3848;42.016;23.098;2023-02-28T11:42:07;97543.28;;;12.99;100.00
7614;BME280;3848;42.016;23.098;2023-02-28T11:44:55;97548.38;;;12.99;100.00
7614;BME280;3848;42.016;23.098;2023-02-28T11:47:33;97542.44;;;12.98;100.00
7614;BME280;3848;42.016;23.098;2023-02-28T11:50:12;97543.94;;;13.19;100.00
7614;BME280;3848;42.016;23.098;2023-02-28T11:52:48;97541.25;;;13.30;100.00
7614;BME280;3848;42.016;23.098;2023-02-28T11:55:21;97530.13;;;13.37;100.00
7614;BME280;3848;42.016;23.098;2023-02-28T11:58:10;97530.88;;;13.43;100.00
7614;BME280;3848;42.016;23.098;2023-02-28T12:00:53;97536.78;;;13.47;100.00
7614;BME280;3848;42.016;23.098;2023-02-28T12:03:27;97525.69;;;13.48;100.00
7614;BME280;3848;42.016;23.098;2023-02-28T12:06:04;97522.91;;;13.65;100.00
7614;BME280;3848;42.016;23.098;2023-02-28T12:08:49;97521.13;;;13.70;100.00
7614;BME280;3848;42.016;23.098;2023-02-28T12:11:28;97516.19;;;13.61;100.00
7614;BME280;3848;42.016;23.098;2023-02-28T12:14:30;97513.50;;;13.68;100.00
7614;BME280;3848;42.016;23.098;2023-02-28T12:17:06;97508.41;;;13.67;100.00
7614;BME280;3848;42.016;23.098;2023-02-28T12:19:44;97504.22;;;13.63;100.00
7614;BME280;3848;42.016;23.098;2023-02-28T12:22:26;97500.78;;;13.65;100.00
7614;BME280;3848;42.016;23.098;2023-02-28T12:25:13;97469.59;;;13.43;100.00
7614;BME280;3848;42.016;23.098;2023-02-28T12:27:46;97491.56;;;13.57;100.00
7614;BME280;3848;42.016;23.098;2023-02-28T12:30:18;97496.63;;;13.60;100.00
7614;BME280;3848;42.016;23.098;2023-02-28T12:32:48;97484.81;;;13.50;100.00
7614;BME280;3848;42.016;23.098;2023-02-28T12:35:19;97490.63;;;13.61;100.00
7614;BME280;3848;42.016;23.098;2023-02-28T12:37:51;97487.44;;;13.47;100.00
7614;BME280;3848;42.016;23.098;2023-02-28T12:40:25;97491.75;;;13.41;100.00
7614;BME280;3848;42.016;23.098;2023-02-28T12:42:58;97485.06;;;13.31;100.00
7614;BME280;3848;42.016;23.098;2023-02-28T12:45:34;97486.00;;;13.26;100.00
7614;BME280;3848;42.016;23.098;2023-02-28T12:48:08;97479.97;;;13.31;100.00
7614;BME280;3848;42.016;23.098;2023-02-28T12:50:37;97473.94;;;13.38;100.00
7614;BME280;3848;42.016;23.098;2023-02-28T12:53:08;97474.81;;;13.37;100.00
7614;BME280;3848;42.016;23.098;2023-02-28T12:55:42;97468.88;;;13.32;100.00
7614;BME280;3848;42.016;23.098;2023-02-28T12:58:16;97465.53;;;13.30;100.00
7614;BME280;3848;42.016;23.098;2023-02-28T13:01:04;97476.63;;;13.28;100.00
7614;BME280;3848;42.016;23.098;2023-02-28T13:03:48;97475.78;;;13.26;100.00
7614;BME280;3848;42.016;23.098;2023-02-28T13:06:27;97477.47;;;13.27;100.00
7614;BME280;3848;42.016;23.098;2023-02-28T13:09:04;97479.19;;;13.26;100.00
7614;BME280;3848;42.016;23.098;2023-02-28T13:11:39;97486.88;;;13.23;100.00
7614;BME280;3848;42.016;23.098;2023-02-28T13:14:18;97490.22;;;13.28;100.00
7614;BME280;3848;42.016;23.098;2023-02-28T13:16:55;97488.56;;;13.24;100.00
7614;BME280;3848;42.016;23.098;2023-02-28T13:19:24;97486.94;;;13.17;100.00
7614;BME280;3848;42.016;23.098;2023-02-28T13:21:52;97464.03;;;13.12;100.00
7614;BME280;3848;42.016;23.098;2023-02-28T13:24:42;97470.81;;;13.18;100.00
7614;BME280;3848;42.016;23.098;2023-02-28T13:27:38;97481.78;;;13.23;100.00